Callison, South Carolina
Current Conditions -  °F | °C
As of 2:56 PM on Friday 28 Nov 2014 (Local Time) from KGRD Reporting Station
Clear Clear  
Wind Chill: 45°   Ceiling: Unl
Heat Index: 47°   Visibility: 10mi
Dew Point: 19°   Wind: 5mph
Humidity: 33%   Direction: 240°WSW
Pressure: 30.31"   Gusts: NA
Location:  34.036°N, 82.2186°W
Report Text: KGRD 281956Z AUTO 24004KT 10SM CLR 08/M07 A3031 RMK AO2 SLP267 T00831072
Loading
Personal Weather Stations






























Interactive Weather Map New forecast layout! Learn more

10-Day Weather Forecast

Advertisements
Track Severe Weather on mobile